sensor_id;sensor_type;location;lat;lon;timestamp;temperature;humidity
66057;DHT22;52842;52.666;5.202;2023-04-03T00:01:48;16.80;64.10
66057;DHT22;52842;52.666;5.202;2023-04-03T00:04:16;16.80;64.10
66057;DHT22;52842;52.666;5.202;2023-04-03T00:06:43;16.80;64.00
66057;DHT22;52842;52.666;5.202;2023-04-03T00:09:09;16.90;64.00
66057;DHT22;52842;52.666;5.202;2023-04-03T00:11:36;17.00;63.90
66057;DHT22;52842;52.666;5.202;2023-04-03T00:14:03;17.20;63.40
66057;DHT22;52842;52.666;5.202;2023-04-03T00:16:30;17.40;62.80
66057;DHT22;52842;52.666;5.202;2023-04-03T00:18:56;17.60;62.40
66057;DHT22;52842;52.666;5.202;2023-04-03T00:21:24;17.60;62.00
66057;DHT22;52842;52.666;5.202;2023-04-03T00:23:51;17.70;61.80
66057;DHT22;52842;52.666;5.202;2023-04-03T00:26:18;17.70;61.60
66057;DHT22;52842;52.666;5.202;2023-04-03T00:28:45;17.80;61.50
66057;DHT22;52842;52.666;5.202;2023-04-03T00:31:13;17.80;61.30
66057;DHT22;52842;52.666;5.202;2023-04-03T00:33:40;17.80;61.30
66057;DHT22;52842;52.666;5.202;2023-04-03T00:36:07;17.80;61.20
66057;DHT22;52842;52.666;5.202;2023-04-03T00:38:35;17.80;61.10
66057;DHT22;52842;52.666;5.202;2023-04-03T00:41:02;17.90;61.00
66057;DHT22;52842;52.666;5.202;2023-04-03T00:43:29;17.90;60.90
66057;DHT22;52842;52.666;5.202;2023-04-03T00:45:56;17.80;60.70
66057;DHT22;52842;52.666;5.202;2023-04-03T00:48:24;17.80;60.90
66057;DHT22;52842;52.666;5.202;2023-04-03T00:50:52;17.70;61.00
66057;DHT22;52842;52.666;5.202;2023-04-03T00:53:19;17.60;61.20
66057;DHT22;52842;52.666;5.202;2023-04-03T00:55:50;17.60;61.30
66057;DHT22;52842;52.666;5.202;2023-04-03T00:58:17;17.50;61.50
66057;DHT22;52842;52.666;5.202;2023-04-03T01:00:46;17.40;61.60
66057;DHT22;52842;52.666;5.202;2023-04-03T01:03:14;17.40;61.80
66057;DHT22;52842;52.666;5.202;2023-04-03T01:05:41;17.30;61.80
66057;DHT22;52842;52.666;5.202;2023-04-03T01:08:07;17.30;62.00
66057;DHT22;52842;52.666;5.202;2023-04-03T01:10:34;17.20;62.00
66057;DHT22;52842;52.666;5.202;2023-04-03T01:13:07;17.20;62.10
66057;DHT22;52842;52.666;5.202;2023-04-03T01:15:43;17.20;62.30
66057;DHT22;52842;52.666;5.202;2023-04-03T01:18:10;17.20;62.40
66057;DHT22;52842;52.666;5.202;2023-04-03T01:20:50;17.10;62.30
66057;DHT22;52842;52.666;5.202;2023-04-03T01:23:28;17.10;62.40
66057;DHT22;52842;52.666;5.202;2023-04-03T01:25:57;17.10;62.40
66057;DHT22;52842;52.666;5.202;2023-04-03T01:28:26;17.00;62.50
66057;DHT22;52842;52.666;5.202;2023-04-03T01:30:56;17.00;62.50
66057;DHT22;52842;52.666;5.202;2023-04-03T01:33:27;17.00;62.60
66057;DHT22;52842;52.666;5.202;2023-04-03T01:35:53;16.90;62.60
66057;DHT22;52842;52.666;5.202;2023-04-03T01:38:20;16.90;62.70
66057;DHT22;52842;52.666;5.202;2023-04-03T01:40:47;16.80;62.70
66057;DHT22;52842;52.666;5.202;2023-04-03T01:43:13;16.80;62.80
66057;DHT22;52842;52.666;5.202;2023-04-03T01:45:40;16.80;62.80
66057;DHT22;52842;52.666;5.202;2023-04-03T01:48:07;16.80;62.70
66057;DHT22;52842;52.666;5.202;2023-04-03T01:50:35;16.90;62.40
66057;DHT22;52842;52.666;5.202;2023-04-03T01:53:02;17.00;61.90
66057;DHT22;52842;52.666;5.202;2023-04-03T01:55:28;17.00;61.60
66057;DHT22;52842;52.666;5.202;2023-04-03T01:57:55;17.10;61.20
66057;DHT22;52842;52.666;5.202;2023-04-03T02:00:22;17.30;61.10
66057;DHT22;52842;52.666;5.202;2023-04-03T02:02:48;17.40;60.90
66057;DHT22;52842;52.666;5.202;2023-04-03T02:05:15;17.50;60.60
66057;DHT22;52842;52.666;5.202;2023-04-03T02:07:43;17.50;60.40
66057;DHT22;52842;52.666;5.202;2023-04-03T02:10:11;17.60;60.30
66057;DHT22;52842;52.666;5.202;2023-04-03T02:12:37;17.60;60.30
66057;DHT22;52842;52.666;5.202;2023-04-03T02:15:04;17.60;60.20
66057;DHT22;52842;52.666;5.202;2023-04-03T02:17:31;17.50;60.20
66057;DHT22;52842;52.666;5.202;2023-04-03T02:19:58;17.50;60.20
66057;DHT22;52842;52.666;5.202;2023-04-03T02:22:25;17.50;60.30
66057;DHT22;52842;52.666;5.202;2023-04-03T02:24:53;17.50;60.40
66057;DHT22;52842;52.666;5.202;2023-04-03T02:27:19;17.40;60.40
66057;DHT22;52842;52.666;5.202;2023-04-03T02:29:46;17.40;60.60
66057;DHT22;52842;52.666;5.202;2023-04-03T02:32:13;17.40;60.70
66057;DHT22;52842;52.666;5.202;2023-04-03T02:34:39;17.30;60.60
66057;DHT22;52842;52.666;5.202;2023-04-03T02:37:06;17.30;60.70
66057;DHT22;52842;52.666;5.202;2023-04-03T02:39:34;17.30;60.80
66057;DHT22;52842;52.666;5.202;2023-04-03T02:42:02;17.30;60.80
66057;DHT22;52842;52.666;5.202;2023-04-03T02:44:29;17.30;60.80
66057;DHT22;52842;52.666;5.202;2023-04-03T02:46:55;17.30;60.80
66057;DHT22;52842;52.666;5.202;2023-04-03T02:49:22;17.30;60.80
66057;DHT22;52842;52.666;5.202;2023-04-03T02:51:49;17.30;60.70
66057;DHT22;52842;52.666;5.202;2023-04-03T02:54:16;17.20;60.40
66057;DHT22;52842;52.666;5.202;2023-04-03T02:56:43;17.20;60.60
66057;DHT22;52842;52.666;5.202;2023-04-03T02:59:11;17.20;60.70
66057;DHT22;52842;52.666;5.202;2023-04-03T03:01:37;17.20;60.80
66057;DHT22;52842;52.666;5.202;2023-04-03T03:04:04;17.20;60.90
66057;DHT22;52842;52.666;5.202;2023-04-03T03:06:30;17.10;60.90
66057;DHT22;52842;52.666;5.202;2023-04-03T03:08:57;17.10;61.00
66057;DHT22;52842;52.666;5.202;2023-04-03T03:11:24;17.10;61.10
66057;DHT22;52842;52.666;5.202;2023-04-03T03:13:51;17.00;61.10
66057;DHT22;52842;52.666;5.202;2023-04-03T03:16:19;17.00;61.20
66057;DHT22;52842;52.666;5.202;2023-04-03T03:18:46;16.90;61.20
66057;DHT22;52842;52.666;5.202;2023-04-03T03:21:12;16.90;61.30
66057;DHT22;52842;52.666;5.202;2023-04-03T03:23:39;16.90;61.40
66057;DHT22;52842;52.666;5.202;2023-04-03T03:26:07;16.80;61.40
66057;DHT22;52842;52.666;5.202;2023-04-03T03:28:33;16.80;61.40
66057;DHT22;52842;52.666;5.202;2023-04-03T03:31:01;16.80;61.30
66057;DHT22;52842;52.666;5.202;2023-04-03T03:33:30;16.90;61.20
66057;DHT22;52842;52.666;5.202;2023-04-03T03:35:56;17.00;60.90
66057;DHT22;52842;52.666;5.202;2023-04-03T03:38:23;17.10;60.50
66057;DHT22;52842;52.666;5.202;2023-04-03T03:40:50;17.20;60.20
66057;DHT22;52842;52.666;5.202;2023-04-03T03:43:17;17.20;60.00
66057;DHT22;52842;52.666;5.202;2023-04-03T03:45:46;17.30;60.00
66057;DHT22;52842;52.666;5.202;2023-04-03T03:48:15;17.20;59.90
66057;DHT22;52842;52.666;5.202;2023-04-03T03:50:44;17.20;60.00
66057;DHT22;52842;52.666;5.202;2023-04-03T03:53:10;17.20;60.00
66057;DHT22;52842;52.666;5.202;2023-04-03T03:55:37;17.20;60.00
66057;DHT22;52842;52.666;5.202;2023-04-03T03:58:03;17.10;60.10
66057;DHT22;52842;52.666;5.202;2023-04-03T04:00:30;17.10;60.20
66057;DHT22;52842;52.666;5.202;2023-04-03T04:02:57;17.10;60.30
66057;DHT22;52842;52.666;5.202;2023-04-03T04:05:24;17.10;60.30
66057;DHT22;52842;52.666;5.202;2023-04-03T04:07:52;17.10;60.40
66057;DHT22;52842;52.666;5.202;2023-04-03T04:10:18;17.10;60.40
66057;DHT22;52842;52.666;5.202;2023-04-03T04:12:45;17.10;60.40
66057;DHT22;52842;52.666;5.202;2023-04-03T04:15:14;17.10;60.50
66057;DHT22;52842;52.666;5.202;2023-04-03T04:17:41;17.10;60.40
66057;DHT22;52842;52.666;5.202;2023-04-03T04:20:07;17.10;60.40
66057;DHT22;52842;52.666;5.202;2023-04-03T04:22:34;17.10;60.40
66057;DHT22;52842;52.666;5.202;2023-04-03T04:25:02;17.10;60.40
66057;DHT22;52842;52.666;5.202;2023-04-03T04:27:29;17.10;60.40
66057;DHT22;52842;52.666;5.202;2023-04-03T04:29:56;17.10;60.30
66057;DHT22;52842;52.666;5.202;2023-04-03T04:32:23;17.10;60.30
66057;DHT22;52842;52.666;5.202;2023-04-03T04:34:49;17.10;60.30
66057;DHT22;52842;52.666;5.202;2023-04-03T04:37:16;17.10;60.20
66057;DHT22;52842;52.666;5.202;2023-04-03T04:39:42;17.10;60.20
66057;DHT22;52842;52.666;5.202;2023-04-03T04:42:10;17.20;61.00
66057;DHT22;52842;52.666;5.202;2023-04-03T04:44:38;17.20;60.20
66057;DHT22;52842;52.666;5.202;2023-04-03T04:47:04;17.20;60.20
66057;DHT22;52842;52.666;5.202;2023-04-03T04:49:31;17.20;60.20
66057;DHT22;52842;52.666;5.202;2023-04-03T04:51:58;17.20;60.10
66057;DHT22;52842;52.666;5.202;2023-04-03T04:54:24;17.20;60.10
66057;DHT22;52842;52.666;5.202;2023-04-03T04:56:51;17.30;60.10
66057;DHT22;52842;52.666;5.202;2023-04-03T04:59:19;17.30;60.00
66057;DHT22;52842;52.666;5.202;2023-04-03T05:01:46;17.30;60.00
66057;DHT22;52842;52.666;5.202;2023-04-03T05:04:12;17.30;60.00
66057;DHT22;52842;52.666;5.202;2023-04-03T05:06:39;17.30;60.00
66057;DHT22;52842;52.666;5.202;2023-04-03T05:09:06;17.30;59.90
66057;DHT22;52842;52.666;5.202;2023-04-03T05:11:32;17.30;59.90
66057;DHT22;52842;52.666;5.202;2023-04-03T05:13:59;17.30;59.90
66057;DHT22;52842;52.666;5.202;2023-04-03T05:16:27;17.40;59.90
66057;DHT22;52842;52.666;5.202;2023-04-03T05:18:54;17.40;59.80
66057;DHT22;52842;52.666;5.202;2023-04-03T05:21:20;17.40;59.80
66057;DHT22;52842;52.666;5.202;2023-04-03T05:23:48;17.40;59.80
66057;DHT22;52842;52.666;5.202;2023-04-03T05:26:15;17.40;59.70
66057;DHT22;52842;52.666;5.202;2023-04-03T05:28:42;17.40;59.60
66057;DHT22;52842;52.666;5.202;2023-04-03T05:31:08;17.50;59.60
66057;DHT22;52842;52.666;5.202;2023-04-03T05:33:36;17.50;59.60
66057;DHT22;52842;52.666;5.202;2023-04-03T05:36:03;17.50;59.60
66057;DHT22;52842;52.666;5.202;2023-04-03T05:38:30;17.50;59.60
66057;DHT22;52842;52.666;5.202;2023-04-03T05:40:57;17.50;59.60
66057;DHT22;52842;52.666;5.202;2023-04-03T05:43:23;17.50;59.50
66057;DHT22;52842;52.666;5.202;2023-04-03T05:45:50;17.50;59.50
66057;DHT22;52842;52.666;5.202;2023-04-03T05:48:17;17.60;59.50
66057;DHT22;52842;52.666;5.202;2023-04-03T05:50:45;17.60;59.40
66057;DHT22;52842;52.666;5.202;2023-04-03T05:53:13;17.60;59.40
66057;DHT22;52842;52.666;5.202;2023-04-03T05:55:42;17.60;59.40
66057;DHT22;52842;52.666;5.202;2023-04-03T05:58:08;17.60;59.40
66057;DHT22;52842;52.666;5.202;2023-04-03T06:00:35;17.60;59.90
66057;DHT22;52842;52.666;5.202;2023-04-03T06:03:02;17.60;59.30
66057;DHT22;52842;52.666;5.202;2023-04-03T06:05:28;17.60;59.30
66057;DHT22;52842;52.666;5.202;2023-04-03T06:07:57;17.60;59.50
66057;DHT22;52842;52.666;5.202;2023-04-03T06:10:23;17.70;59.80
66057;DHT22;52842;52.666;5.202;2023-04-03T06:12:50;17.70;60.00
66057;DHT22;52842;52.666;5.202;2023-04-03T06:15:17;17.70;60.30
66057;DHT22;52842;52.666;5.202;2023-04-03T06:17:43;17.70;60.60
66057;DHT22;52842;52.666;5.202;2023-04-03T06:20:11;17.70;60.80
66057;DHT22;52842;52.666;5.202;2023-04-03T06:22:38;17.70;61.00
66057;DHT22;52842;52.666;5.202;2023-04-03T06:25:07;17.80;61.00
66057;DHT22;52842;52.666;5.202;2023-04-03T06:27:34;17.80;61.00
66057;DHT22;52842;52.666;5.202;2023-04-03T06:30:01;17.80;61.10
66057;DHT22;52842;52.666;5.202;2023-04-03T06:32:28;17.80;61.10
66057;DHT22;52842;52.666;5.202;2023-04-03T06:34:54;17.80;61.00
66057;DHT22;52842;52.666;5.202;2023-04-03T06:37:22;17.90;61.10
66057;DHT22;52842;52.666;5.202;2023-04-03T06:39:51;17.90;60.90
66057;DHT22;52842;52.666;5.202;2023-04-03T06:42:19;17.90;61.00
66057;DHT22;52842;52.666;5.202;2023-04-03T06:44:46;17.90;61.00
66057;DHT22;52842;52.666;5.202;2023-04-03T06:47:13;17.90;61.00
66057;DHT22;52842;52.666;5.202;2023-04-03T06:49:40;17.90;61.00
66057;DHT22;52842;52.666;5.202;2023-04-03T06:52:08;17.90;60.90
66057;DHT22;52842;52.666;5.202;2023-04-03T06:54:35;18.00;61.00
66057;DHT22;52842;52.666;5.202;2023-04-03T06:57:02;18.00;60.90
66057;DHT22;52842;52.666;5.202;2023-04-03T06:59:30;18.00;60.90
66057;DHT22;52842;52.666;5.202;2023-04-03T07:01:56;18.00;60.90
66057;DHT22;52842;52.666;5.202;2023-04-03T07:04:25;18.00;60.90
66057;DHT22;52842;52.666;5.202;2023-04-03T07:06:51;18.00;61.50
66057;DHT22;52842;52.666;5.202;2023-04-03T07:09:21;18.00;60.70
66057;DHT22;52842;52.666;5.202;2023-04-03T07:11:47;18.00;60.70
66057;DHT22;52842;52.666;5.202;2023-04-03T07:14:14;18.00;60.70
66057;DHT22;52842;52.666;5.202;2023-04-03T07:16:42;18.10;60.70
66057;DHT22;52842;52.666;5.202;2023-04-03T07:19:09;18.10;60.70
66057;DHT22;52842;52.666;5.202;2023-04-03T07:21:35;18.10;60.80
66057;DHT22;52842;52.666;5.202;2023-04-03T07:24:02;18.10;60.80
66057;DHT22;52842;52.666;5.202;2023-04-03T07:26:29;18.10;60.80
66057;DHT22;52842;52.666;5.202;2023-04-03T07:28:56;18.10;60.70
66057;DHT22;52842;52.666;5.202;2023-04-03T07:31:23;18.10;60.50
66057;DHT22;52842;52.666;5.202;2023-04-03T07:33:51;18.10;60.40
66057;DHT22;52842;52.666;5.202;2023-04-03T07:36:19;18.10;60.20
66057;DHT22;52842;52.666;5.202;2023-04-03T07:38:46;18.10;60.10
66057;DHT22;52842;52.666;5.202;2023-04-03T07:41:14;18.10;60.00
66057;DHT22;52842;52.666;5.202;2023-04-03T07:43:42;18.10;60.10
66057;DHT22;52842;52.666;5.202;2023-04-03T07:46:09;18.10;60.20
66057;DHT22;52842;52.666;5.202;2023-04-03T07:48:38;18.10;61.10
66057;DHT22;52842;52.666;5.202;2023-04-03T07:51:06;18.10;60.40
66057;DHT22;52842;52.666;5.202;2023-04-03T07:53:33;18.10;60.50
66057;DHT22;52842;52.666;5.202;2023-04-03T07:56:00;18.10;60.50
66057;DHT22;52842;52.666;5.202;2023-04-03T07:58:28;18.10;60.60
66057;DHT22;52842;52.666;5.202;2023-04-03T08:00:55;18.10;60.50
66057;DHT22;52842;52.666;5.202;2023-04-03T08:03:21;18.20;60.60
66057;DHT22;52842;52.666;5.202;2023-04-03T08:05:48;18.20;60.60
66057;DHT22;52842;52.666;5.202;2023-04-03T08:08:17;18.20;60.60
66057;DHT22;52842;52.666;5.202;2023-04-03T08:10:47;18.20;60.60
66057;DHT22;52842;52.666;5.202;2023-04-03T08:13:14;18.20;60.60
66057;DHT22;52842;52.666;5.202;2023-04-03T08:15:40;18.20;60.60
66057;DHT22;52842;52.666;5.202;2023-04-03T08:18:07;18.20;60.60
66057;DHT22;52842;52.666;5.202;2023-04-03T08:20:34;18.20;60.60
66057;DHT22;52842;52.666;5.202;2023-04-03T08:23:00;18.20;60.70
66057;DHT22;52842;52.666;5.202;2023-04-03T08:25:28;18.30;60.80
66057;DHT22;52842;52.666;5.202;2023-04-03T08:27:56;18.30;60.80
66057;DHT22;52842;52.666;5.202;2023-04-03T08:30:22;18.30;60.80
66057;DHT22;52842;52.666;5.202;2023-04-03T08:32:49;18.20;60.70
66057;DHT22;52842;52.666;5.202;2023-04-03T08:35:16;18.30;60.90
66057;DHT22;52842;52.666;5.202;2023-04-03T08:37:43;18.30;60.90
66057;DHT22;52842;52.666;5.202;2023-04-03T08:40:12;18.30;61.00
66057;DHT22;52842;52.666;5.202;2023-04-03T08:42:43;18.30;61.10
66057;DHT22;52842;52.666;5.202;2023-04-03T08:45:12;18.30;61.00
66057;DHT22;52842;52.666;5.202;2023-04-03T08:47:40;18.30;61.00
66057;DHT22;52842;52.666;5.202;2023-04-03T08:50:11;18.30;61.10
66057;DHT22;52842;52.666;5.202;2023-04-03T08:52:39;18.30;61.20
66057;DHT22;52842;52.666;5.202;2023-04-03T08:55:13;18.30;61.30
66057;DHT22;52842;52.666;5.202;2023-04-03T08:57:41;18.40;61.30
66057;DHT22;52842;52.666;5.202;2023-04-03T09:00:17;18.40;61.40
66057;DHT22;52842;52.666;5.202;2023-04-03T09:02:44;18.40;62.10
66057;DHT22;52842;52.666;5.202;2023-04-03T09:05:13;18.40;61.50
66057;DHT22;52842;52.666;5.202;2023-04-03T09:07:42;18.40;61.40
66057;DHT22;52842;52.666;5.202;2023-04-03T09:10:09;18.40;61.40
66057;DHT22;52842;52.666;5.202;2023-04-03T09:12:37;18.40;61.30
66057;DHT22;52842;52.666;5.202;2023-04-03T09:15:07;18.40;61.10
66057;DHT22;52842;52.666;5.202;2023-04-03T09:17:41;18.40;60.40
66057;DHT22;52842;52.666;5.202;2023-04-03T09:20:11;18.40;60.10
66057;DHT22;52842;52.666;5.202;2023-04-03T09:22:41;18.40;60.00
66057;DHT22;52842;52.666;5.202;2023-04-03T09:25:10;18.40;60.00
66057;DHT22;52842;52.666;5.202;2023-04-03T09:27:38;18.40;60.00
66057;DHT22;52842;52.666;5.202;2023-04-03T09:30:06;18.50;59.90
66057;DHT22;52842;52.666;5.202;2023-04-03T09:32:34;18.50;59.90
66057;DHT22;52842;52.666;5.202;2023-04-03T09:35:04;18.40;59.50
66057;DHT22;52842;52.666;5.202;2023-04-03T09:37:38;18.30;59.00
66057;DHT22;52842;52.666;5.202;2023-04-03T09:40:05;18.30;59.10
66057;DHT22;52842;52.666;5.202;2023-04-03T09:42:33;18.30;59.20
66057;DHT22;52842;52.666;5.202;2023-04-03T09:45:05;18.20;59.30
66057;DHT22;52842;52.666;5.202;2023-04-03T09:47:32;18.20;59.40
66057;DHT22;52842;52.666;5.202;2023-04-03T09:50:19;18.20;59.50
66057;DHT22;52842;52.666;5.202;2023-04-03T09:52:48;18.30;59.70
66057;DHT22;52842;52.666;5.202;2023-04-03T09:55:15;18.20;59.70
66057;DHT22;52842;52.666;5.202;2023-04-03T09:57:42;18.30;59.60
66057;DHT22;52842;52.666;5.202;2023-04-03T10:00:19;18.30;59.60
66057;DHT22;52842;52.666;5.202;2023-04-03T10:02:47;18.30;59.60
66057;DHT22;52842;52.666;5.202;2023-04-03T10:05:31;18.30;59.60
66057;DHT22;52842;52.666;5.202;2023-04-03T10:08:08;18.30;59.60
66057;DHT22;52842;52.666;5.202;2023-04-03T10:10:36;18.30;59.80
66057;DHT22;52842;52.666;5.202;2023-04-03T10:13:03;18.20;59.70
66057;DHT22;52842;52.666;5.202;2023-04-03T10:15:31;18.20;59.80
66057;DHT22;52842;52.666;5.202;2023-04-03T10:18:02;18.20;59.90
66057;DHT22;52842;52.666;5.202;2023-04-03T10:20:34;18.20;59.90
66057;DHT22;52842;52.666;5.202;2023-04-03T10:23:10;18.20;59.80
66057;DHT22;52842;52.666;5.202;2023-04-03T10:25:41;18.10;59.80
66057;DHT22;52842;52.666;5.202;2023-04-03T10:28:11;18.20;59.90
66057;DHT22;52842;52.666;5.202;2023-04-03T10:30:42;18.20;59.90
66057;DHT22;52842;52.666;5.202;2023-04-03T10:36:12;18.20;59.80
66057;DHT22;52842;52.666;5.202;2023-04-03T10:38:43;18.20;59.90
66057;DHT22;52842;52.666;5.202;2023-04-03T10:41:15;18.20;59.90
66057;DHT22;52842;52.666;5.202;2023-04-03T10:43:45;18.20;59.90
66057;DHT22;52842;52.666;5.202;2023-04-03T10:46:15;18.30;59.90
66057;DHT22;52842;52.666;5.202;2023-04-03T10:48:47;18.30;59.80
66057;DHT22;52842;52.666;5.202;2023-04-03T10:51:18;18.30;59.80
66057;DHT22;52842;52.666;5.202;2023-04-03T10:53:49;18.30;58.80
66057;DHT22;52842;52.666;5.202;2023-04-03T10:56:19;18.20;58.30
66057;DHT22;52842;52.666;5.202;2023-04-03T10:58:52;18.20;57.90
66057;DHT22;52842;52.666;5.202;2023-04-03T11:01:22;18.10;57.70
66057;DHT22;52842;52.666;5.202;2023-04-03T11:03:51;18.10;57.60
66057;DHT22;52842;52.666;5.202;2023-04-03T11:06:19;18.10;57.70
66057;DHT22;52842;52.666;5.202;2023-04-03T11:08:49;18.10;57.70
66057;DHT22;52842;52.666;5.202;2023-04-03T11:11:17;18.10;57.70
66057;DHT22;52842;52.666;5.202;2023-04-03T11:13:48;18.10;57.70
66057;DHT22;52842;52.666;5.202;2023-04-03T11:16:18;18.10;57.80
66057;DHT22;52842;52.666;5.202;2023-04-03T11:18:46;18.10;57.90
66057;DHT22;52842;52.666;5.202;2023-04-03T11:21:16;18.10;57.90
66057;DHT22;52842;52.666;5.202;2023-04-03T12:02:44;18.20;58.00
66057;DHT22;52842;52.666;5.202;2023-04-03T12:10:41;18.50;56.60
66057;DHT22;52842;52.666;5.202;2023-04-03T12:13:13;18.50;56.30
66057;DHT22;52842;52.666;5.202;2023-04-03T12:15:47;18.50;56.10
66057;DHT22;52842;52.666;5.202;2023-04-03T12:21:14;18.50;56.10
66057;DHT22;52842;52.666;5.202;2023-04-03T12:23:57;18.50;55.90
66057;DHT22;52842;52.666;5.202;2023-04-03T12:26:26;18.50;56.10
66057;DHT22;52842;52.666;5.202;2023-04-03T12:28:53;18.40;56.00
66057;DHT22;52842;52.666;5.202;2023-04-03T12:31:22;18.40;56.30
66057;DHT22;52842;52.666;5.202;2023-04-03T12:33:58;18.40;56.20
66057;DHT22;52842;52.666;5.202;2023-04-03T12:36:30;18.40;56.40
66057;DHT22;52842;52.666;5.202;2023-04-03T12:41:43;18.30;56.50
66057;DHT22;52842;52.666;5.202;2023-04-03T12:46:54;18.30;56.70
66057;DHT22;52842;52.666;5.202;2023-04-03T12:49:24;18.30;56.80
66057;DHT22;52842;52.666;5.202;2023-04-03T12:51:54;18.30;56.80
66057;DHT22;52842;52.666;5.202;2023-04-03T12:54:22;18.20;56.90
66057;DHT22;52842;52.666;5.202;2023-04-03T12:56:50;18.20;57.10
66057;DHT22;52842;52.666;5.202;2023-04-03T12:59:18;18.20;57.30
66057;DHT22;52842;52.666;5.202;2023-04-03T13:01:52;18.10;57.50
66057;DHT22;52842;52.666;5.202;2023-04-03T13:04:19;18.10;57.60
66057;DHT22;52842;52.666;5.202;2023-04-03T13:06:46;18.10;57.80
66057;DHT22;52842;52.666;5.202;2023-04-03T13:09:19;18.00;58.00
66057;DHT22;52842;52.666;5.202;2023-04-03T13:11:48;18.00;58.10
66057;DHT22;52842;52.666;5.202;2023-04-03T13:14:16;18.00;58.80
66057;DHT22;52842;52.666;5.202;2023-04-03T13:16:52;18.00;58.30
66057;DHT22;52842;52.666;5.202;2023-04-03T13:19:19;18.00;58.40
66057;DHT22;52842;52.666;5.202;2023-04-03T13:21:45;17.90;58.40
66057;DHT22;52842;52.666;5.202;2023-04-03T13:24:12;17.90;58.50
66057;DHT22;52842;52.666;5.202;2023-04-03T13:26:41;17.90;58.80
66057;DHT22;52842;52.666;5.202;2023-04-03T13:29:17;18.00;59.00
66057;DHT22;52842;52.666;5.202;2023-04-03T13:31:45;18.00;59.00
66057;DHT22;52842;52.666;5.202;2023-04-03T13:34:12;18.10;59.10
66057;DHT22;52842;52.666;5.202;2023-04-03T13:36:40;18.10;59.10
66057;DHT22;52842;52.666;5.202;2023-04-03T13:39:21;18.10;59.10
66057;DHT22;52842;52.666;5.202;2023-04-03T13:41:50;18.20;59.20
66057;DHT22;52842;52.666;5.202;2023-04-03T13:44:23;18.20;59.30
66057;DHT22;52842;52.666;5.202;2023-04-03T13:46:53;18.20;59.30
66057;DHT22;52842;52.666;5.202;2023-04-03T13:49:20;18.30;59.50
66057;DHT22;52842;52.666;5.202;2023-04-03T13:51:47;18.30;59.50
66057;DHT22;52842;52.666;5.202;2023-04-03T13:54:17;18.40;59.60
66057;DHT22;52842;52.666;5.202;2023-04-03T13:56:45;18.40;59.60
66057;DHT22;52842;52.666;5.202;2023-04-03T13:59:23;18.50;59.60
66057;DHT22;52842;52.666;5.202;2023-04-03T14:01:51;18.50;59.60
66057;DHT22;52842;52.666;5.202;2023-04-03T14:04:20;18.50;59.50
66057;DHT22;52842;52.666;5.202;2023-04-03T14:06:47;18.50;59.50
66057;DHT22;52842;52.666;5.202;2023-04-03T14:09:14;18.50;59.60
66057;DHT22;52842;52.666;5.202;2023-04-03T14:11:41;18.50;59.60
66057;DHT22;52842;52.666;5.202;2023-04-03T14:14:11;18.50;59.70
66057;DHT22;52842;52.666;5.202;2023-04-03T14:16:41;18.50;59.70
66057;DHT22;52842;52.666;5.202;2023-04-03T14:19:11;18.50;59.70
66057;DHT22;52842;52.666;5.202;2023-04-03T14:21:42;18.50;59.80
66057;DHT22;52842;52.666;5.202;2023-04-03T14:24:09;18.50;59.90
66057;DHT22;52842;52.666;5.202;2023-04-03T14:26:36;18.50;59.90
66057;DHT22;52842;52.666;5.202;2023-04-03T14:29:03;18.50;59.90
66057;DHT22;52842;52.666;5.202;2023-04-03T14:31:30;18.50;60.00
66057;DHT22;52842;52.666;5.202;2023-04-03T14:33:58;18.50;60.10
66057;DHT22;52842;52.666;5.202;2023-04-03T14:36:25;18.50;60.10
66057;DHT22;52842;52.666;5.202;2023-04-03T14:38:53;18.60;60.20
66057;DHT22;52842;52.666;5.202;2023-04-03T14:41:21;18.60;60.20
66057;DHT22;52842;52.666;5.202;2023-04-03T14:43:49;18.60;60.20
66057;DHT22;52842;52.666;5.202;2023-04-03T14:46:17;18.70;60.30
66057;DHT22;52842;52.666;5.202;2023-04-03T14:48:44;18.70;60.20
66057;DHT22;52842;52.666;5.202;2023-04-03T14:51:13;18.70;60.10
66057;DHT22;52842;52.666;5.202;2023-04-03T14:53:40;18.70;60.10
66057;DHT22;52842;52.666;5.202;2023-04-03T14:56:11;18.70;60.10
66057;DHT22;52842;52.666;5.202;2023-04-03T14:58:37;18.70;60.00
66057;DHT22;52842;52.666;5.202;2023-04-03T15:01:04;18.70;60.00
66057;DHT22;52842;52.666;5.202;2023-04-03T15:03:31;18.70;60.00
66057;DHT22;52842;52.666;5.202;2023-04-03T15:05:58;18.70;60.00
66057;DHT22;52842;52.666;5.202;2023-04-03T15:08:27;18.70;60.10
66057;DHT22;52842;52.666;5.202;2023-04-03T15:10:56;18.70;60.10
66057;DHT22;52842;52.666;5.202;2023-04-03T15:13:23;18.70;60.20
66057;DHT22;52842;52.666;5.202;2023-04-03T15:15:49;18.70;60.20
66057;DHT22;52842;52.666;5.202;2023-04-03T15:18:18;18.70;60.20
66057;DHT22;52842;52.666;5.202;2023-04-03T15:20:45;18.70;60.40
66057;DHT22;52842;52.666;5.202;2023-04-03T15:23:13;18.70;60.30
66057;DHT22;52842;52.666;5.202;2023-04-03T15:25:42;18.70;60.40
66057;DHT22;52842;52.666;5.202;2023-04-03T15:28:10;18.70;60.40
66057;DHT22;52842;52.666;5.202;2023-04-03T15:30:39;18.70;60.30
66057;DHT22;52842;52.666;5.202;2023-04-03T15:33:06;18.80;60.50
66057;DHT22;52842;52.666;5.202;2023-04-03T15:35:33;18.80;60.30
66057;DHT22;52842;52.666;5.202;2023-04-03T15:38:00;18.80;60.30
66057;DHT22;52842;52.666;5.202;2023-04-03T15:40:26;18.90;60.30
66057;DHT22;52842;52.666;5.202;2023-04-03T15:42:54;18.90;60.30
66057;DHT22;52842;52.666;5.202;2023-04-03T15:45:21;18.90;60.20
66057;DHT22;52842;52.666;5.202;2023-04-03T16:01:57;19.00;59.50
66057;DHT22;52842;52.666;5.202;2023-04-03T16:04:28;19.10;59.70
66057;DHT22;52842;52.666;5.202;2023-04-03T16:06:56;19.10;59.70
66057;DHT22;52842;52.666;5.202;2023-04-03T16:09:25;19.10;59.70
66057;DHT22;52842;52.666;5.202;2023-04-03T16:11:52;19.10;59.60
66057;DHT22;52842;52.666;5.202;2023-04-03T16:14:21;19.20;59.50
66057;DHT22;52842;52.666;5.202;2023-04-03T16:16:48;19.30;59.40
66057;DHT22;52842;52.666;5.202;2023-04-03T16:19:20;19.30;59.30
66057;DHT22;52842;52.666;5.202;2023-04-03T16:21:48;19.30;59.30
66057;DHT22;52842;52.666;5.202;2023-04-03T16:24:16;19.30;59.20
66057;DHT22;52842;52.666;5.202;2023-04-03T16:26:48;19.30;59.30
66057;DHT22;52842;52.666;5.202;2023-04-03T16:29:18;19.30;59.30
66057;DHT22;52842;52.666;5.202;2023-04-03T16:31:46;19.30;59.30
66057;DHT22;52842;52.666;5.202;2023-04-03T16:34:18;19.30;59.40
66057;DHT22;52842;52.666;5.202;2023-04-03T16:36:50;19.30;59.50
66057;DHT22;52842;52.666;5.202;2023-04-03T16:39:20;19.30;59.60
66057;DHT22;52842;52.666;5.202;2023-04-03T16:41:49;19.30;59.70
66057;DHT22;52842;52.666;5.202;2023-04-03T16:44:16;19.30;59.70
66057;DHT22;52842;52.666;5.202;2023-04-03T16:46:46;19.30;59.70